sensor_id;sensor_type;location;lat;lon;timestamp;P1;durP1;ratioP1;P2;durP2;ratioP2
33188;SDS011;52601;53.070;10.600;2023-06-24T00:02:57;6.90;;;4.37;;
33188;SDS011;52601;53.070;10.600;2023-06-24T00:06:41;6.53;;;4.47;;
33188;SDS011;52601;53.070;10.600;2023-06-24T00:10:30;7.38;;;4.28;;
33188;SDS011;52601;53.070;10.600;2023-06-24T00:14:15;9.60;;;4.60;;
33188;SDS011;52601;53.070;10.600;2023-06-24T00:17:59;6.80;;;4.18;;
33188;SDS011;52601;53.070;10.600;2023-06-24T00:21:44;7.57;;;4.88;;
33188;SDS011;52601;53.070;10.600;2023-06-24T00:25:30;8.20;;;4.80;;
33188;SDS011;52601;53.070;10.600;2023-06-24T00:29:13;7.80;;;4.88;;
33188;SDS011;52601;53.070;10.600;2023-06-24T00:32:58;6.28;;;4.45;;
33188;SDS011;52601;53.070;10.600;2023-06-24T00:36:42;6.55;;;4.20;;
33188;SDS011;52601;53.070;10.600;2023-06-24T00:40:28;7.93;;;4.43;;
33188;SDS011;52601;53.070;10.600;2023-06-24T00:44:12;8.27;;;4.33;;
33188;SDS011;52601;53.070;10.600;2023-06-24T00:48:00;8.57;;;4.17;;
33188;SDS011;52601;53.070;10.600;2023-06-24T00:51:44;5.70;;;4.20;;
33188;SDS011;52601;53.070;10.600;2023-06-24T00:55:28;9.48;;;4.88;;
33188;SDS011;52601;53.070;10.600;2023-06-24T00:59:17;6.70;;;4.63;;
33188;SDS011;52601;53.070;10.600;2023-06-24T01:03:03;8.50;;;5.37;;
33188;SDS011;52601;53.070;10.600;2023-06-24T01:06:48;8.13;;;4.90;;
33188;SDS011;52601;53.070;10.600;2023-06-24T01:10:40;8.52;;;5.10;;
33188;SDS011;52601;53.070;10.600;2023-06-24T01:14:24;11.87;;;5.03;;
33188;SDS011;52601;53.070;10.600;2023-06-24T01:18:10;7.43;;;5.00;;
33188;SDS011;52601;53.070;10.600;2023-06-24T01:22:28;8.85;;;5.88;;
33188;SDS011;52601;53.070;10.600;2023-06-24T01:30:36;8.43;;;5.30;;
33188;SDS011;52601;53.070;10.600;2023-06-24T01:34:53;7.15;;;5.53;;
33188;SDS011;52601;53.070;10.600;2023-06-24T01:38:43;7.85;;;5.53;;
33188;SDS011;52601;53.070;10.600;2023-06-24T01:42:34;10.63;;;5.45;;
33188;SDS011;52601;53.070;10.600;2023-06-24T01:46:21;9.45;;;5.38;;
33188;SDS011;52601;53.070;10.600;2023-06-24T01:50:09;7.18;;;5.32;;
33188;SDS011;52601;53.070;10.600;2023-06-24T01:54:00;8.93;;;6.05;;
33188;SDS011;52601;53.070;10.600;2023-06-24T01:57:45;11.27;;;5.40;;
33188;SDS011;52601;53.070;10.600;2023-06-24T02:01:33;11.32;;;6.05;;
33188;SDS011;52601;53.070;10.600;2023-06-24T02:05:20;9.97;;;6.20;;
33188;SDS011;52601;53.070;10.600;2023-06-24T02:09:06;7.30;;;5.35;;
33188;SDS011;52601;53.070;10.600;2023-06-24T02:12:52;8.43;;;5.80;;
33188;SDS011;52601;53.070;10.600;2023-06-24T02:16:38;11.90;;;6.30;;
33188;SDS011;52601;53.070;10.600;2023-06-24T02:20:24;12.37;;;5.87;;
33188;SDS011;52601;53.070;10.600;2023-06-24T02:24:10;8.82;;;6.00;;
33188;SDS011;52601;53.070;10.600;2023-06-24T02:27:54;7.85;;;5.80;;
33188;SDS011;52601;53.070;10.600;2023-06-24T02:31:39;8.55;;;6.50;;
33188;SDS011;52601;53.070;10.600;2023-06-24T02:35:24;10.57;;;6.40;;
33188;SDS011;52601;53.070;10.600;2023-06-24T02:39:09;9.07;;;6.13;;
33188;SDS011;52601;53.070;10.600;2023-06-24T02:42:53;10.30;;;6.68;;
33188;SDS011;52601;53.070;10.600;2023-06-24T02:46:37;10.07;;;6.10;;
33188;SDS011;52601;53.070;10.600;2023-06-24T02:50:23;7.53;;;5.85;;
33188;SDS011;52601;53.070;10.600;2023-06-24T02:54:07;9.47;;;6.57;;
33188;SDS011;52601;53.070;10.600;2023-06-24T02:57:52;10.07;;;7.07;;
33188;SDS011;52601;53.070;10.600;2023-06-24T03:01:37;8.75;;;6.13;;
33188;SDS011;52601;53.070;10.600;2023-06-24T03:05:22;10.13;;;6.25;;
33188;SDS011;52601;53.070;10.600;2023-06-24T03:09:07;8.98;;;6.72;;
33188;SDS011;52601;53.070;10.600;2023-06-24T03:12:51;9.32;;;6.70;;
33188;SDS011;52601;53.070;10.600;2023-06-24T03:16:36;9.55;;;6.53;;
33188;SDS011;52601;53.070;10.600;2023-06-24T03:20:21;11.50;;;6.65;;
33188;SDS011;52601;53.070;10.600;2023-06-24T03:24:05;11.00;;;6.88;;
33188;SDS011;52601;53.070;10.600;2023-06-24T03:27:49;9.23;;;7.00;;
33188;SDS011;52601;53.070;10.600;2023-06-24T03:31:33;10.98;;;7.28;;
33188;SDS011;52601;53.070;10.600;2023-06-24T03:35:20;11.15;;;7.18;;
33188;SDS011;52601;53.070;10.600;2023-06-24T03:39:05;10.43;;;6.78;;
33188;SDS011;52601;53.070;10.600;2023-06-24T03:42:49;11.88;;;7.32;;
33188;SDS011;52601;53.070;10.600;2023-06-24T03:46:33;10.93;;;7.40;;
33188;SDS011;52601;53.070;10.600;2023-06-24T03:50:18;11.35;;;7.53;;
33188;SDS011;52601;53.070;10.600;2023-06-24T03:54:01;12.30;;;7.65;;
33188;SDS011;52601;53.070;10.600;2023-06-24T03:57:48;12.48;;;7.75;;
33188;SDS011;52601;53.070;10.600;2023-06-24T04:01:31;12.05;;;7.63;;
33188;SDS011;52601;53.070;10.600;2023-06-24T04:05:15;10.75;;;7.00;;
33188;SDS011;52601;53.070;10.600;2023-06-24T04:09:00;11.55;;;7.55;;
33188;SDS011;52601;53.070;10.600;2023-06-24T04:12:44;12.45;;;7.60;;
33188;SDS011;52601;53.070;10.600;2023-06-24T04:16:28;12.35;;;7.20;;
33188;SDS011;52601;53.070;10.600;2023-06-24T04:20:13;12.30;;;7.95;;
33188;SDS011;52601;53.070;10.600;2023-06-24T04:23:57;15.05;;;8.07;;
33188;SDS011;52601;53.070;10.600;2023-06-24T04:27:41;16.92;;;7.40;;
33188;SDS011;52601;53.070;10.600;2023-06-24T04:31:25;12.67;;;8.13;;
33188;SDS011;52601;53.070;10.600;2023-06-24T04:35:09;11.63;;;7.28;;
33188;SDS011;52601;53.070;10.600;2023-06-24T04:38:53;10.00;;;7.53;;
33188;SDS011;52601;53.070;10.600;2023-06-24T04:42:37;10.70;;;6.93;;
33188;SDS011;52601;53.070;10.600;2023-06-24T04:46:22;10.95;;;7.70;;
33188;SDS011;52601;53.070;10.600;2023-06-24T04:50:06;11.95;;;7.90;;
33188;SDS011;52601;53.070;10.600;2023-06-24T04:53:50;13.20;;;7.40;;
33188;SDS011;52601;53.070;10.600;2023-06-24T04:57:35;11.73;;;7.80;;
33188;SDS011;52601;53.070;10.600;2023-06-24T05:01:18;13.50;;;7.80;;
33188;SDS011;52601;53.070;10.600;2023-06-24T05:05:02;12.80;;;8.00;;
33188;SDS011;52601;53.070;10.600;2023-06-24T05:08:46;9.32;;;7.40;;
33188;SDS011;52601;53.070;10.600;2023-06-24T05:12:31;12.10;;;8.00;;
33188;SDS011;52601;53.070;10.600;2023-06-24T05:16:15;10.38;;;7.72;;
33188;SDS011;52601;53.070;10.600;2023-06-24T05:19:59;11.35;;;7.63;;
33188;SDS011;52601;53.070;10.600;2023-06-24T05:23:43;10.52;;;7.68;;
33188;SDS011;52601;53.070;10.600;2023-06-24T05:27:27;13.02;;;7.53;;
33188;SDS011;52601;53.070;10.600;2023-06-24T05:31:11;12.88;;;7.65;;
33188;SDS011;52601;53.070;10.600;2023-06-24T05:34:55;13.32;;;8.18;;
33188;SDS011;52601;53.070;10.600;2023-06-24T05:38:39;10.60;;;7.65;;
33188;SDS011;52601;53.070;10.600;2023-06-24T05:42:22;13.03;;;7.70;;
33188;SDS011;52601;53.070;10.600;2023-06-24T05:46:06;12.45;;;7.43;;
33188;SDS011;52601;53.070;10.600;2023-06-24T05:49:51;12.57;;;7.22;;
33188;SDS011;52601;53.070;10.600;2023-06-24T05:53:35;9.20;;;6.10;;
33188;SDS011;52601;53.070;10.600;2023-06-24T05:57:18;7.90;;;5.85;;
33188;SDS011;52601;53.070;10.600;2023-06-24T06:01:02;7.53;;;5.63;;
33188;SDS011;52601;53.070;10.600;2023-06-24T06:04:47;8.93;;;5.45;;
33188;SDS011;52601;53.070;10.600;2023-06-24T06:08:30;8.85;;;5.30;;
33188;SDS011;52601;53.070;10.600;2023-06-24T06:12:14;7.87;;;5.37;;
33188;SDS011;52601;53.070;10.600;2023-06-24T06:15:58;9.70;;;5.35;;
33188;SDS011;52601;53.070;10.600;2023-06-24T06:19:42;8.18;;;4.90;;
33188;SDS011;52601;53.070;10.600;2023-06-24T06:23:26;6.60;;;4.53;;
33188;SDS011;52601;53.070;10.600;2023-06-24T06:27:10;7.60;;;4.28;;
33188;SDS011;52601;53.070;10.600;2023-06-24T06:30:55;7.15;;;4.45;;
33188;SDS011;52601;53.070;10.600;2023-06-24T06:34:40;7.20;;;4.18;;
33188;SDS011;52601;53.070;10.600;2023-06-24T06:38:24;6.28;;;4.00;;
33188;SDS011;52601;53.070;10.600;2023-06-24T06:42:08;7.13;;;3.55;;
33188;SDS011;52601;53.070;10.600;2023-06-24T06:45:52;5.20;;;3.43;;
33188;SDS011;52601;53.070;10.600;2023-06-24T06:49:36;5.57;;;3.58;;
33188;SDS011;52601;53.070;10.600;2023-06-24T06:53:20;5.13;;;3.30;;
33188;SDS011;52601;53.070;10.600;2023-06-24T06:57:05;5.68;;;3.25;;
33188;SDS011;52601;53.070;10.600;2023-06-24T07:00:49;5.43;;;3.57;;
33188;SDS011;52601;53.070;10.600;2023-06-24T07:04:33;5.40;;;3.75;;
33188;SDS011;52601;53.070;10.600;2023-06-24T07:08:19;4.40;;;2.88;;
33188;SDS011;52601;53.070;10.600;2023-06-24T07:12:05;4.40;;;2.75;;
33188;SDS011;52601;53.070;10.600;2023-06-24T07:15:49;4.32;;;2.75;;
33188;SDS011;52601;53.070;10.600;2023-06-24T07:19:33;5.07;;;3.30;;
33188;SDS011;52601;53.070;10.600;2023-06-24T07:23:17;4.47;;;2.90;;
33188;SDS011;52601;53.070;10.600;2023-06-24T07:27:01;5.85;;;3.00;;
33188;SDS011;52601;53.070;10.600;2023-06-24T07:30:45;5.25;;;3.00;;
33188;SDS011;52601;53.070;10.600;2023-06-24T07:34:29;3.97;;;2.95;;
33188;SDS011;52601;53.070;10.600;2023-06-24T07:38:13;5.15;;;2.65;;
33188;SDS011;52601;53.070;10.600;2023-06-24T07:41:57;4.60;;;2.88;;
33188;SDS011;52601;53.070;10.600;2023-06-24T07:45:41;4.00;;;2.60;;
33188;SDS011;52601;53.070;10.600;2023-06-24T07:49:25;5.47;;;3.10;;
33188;SDS011;52601;53.070;10.600;2023-06-24T07:53:09;6.13;;;3.20;;
33188;SDS011;52601;53.070;10.600;2023-06-24T07:56:53;3.97;;;2.90;;
33188;SDS011;52601;53.070;10.600;2023-06-24T08:00:37;4.60;;;2.83;;
33188;SDS011;52601;53.070;10.600;2023-06-24T08:04:21;5.40;;;2.60;;
33188;SDS011;52601;53.070;10.600;2023-06-24T08:08:05;4.35;;;2.97;;
33188;SDS011;52601;53.070;10.600;2023-06-24T08:11:49;4.35;;;2.58;;
33188;SDS011;52601;53.070;10.600;2023-06-24T08:15:33;2.85;;;2.55;;
33188;SDS011;52601;53.070;10.600;2023-06-24T08:19:17;6.50;;;2.40;;
33188;SDS011;52601;53.070;10.600;2023-06-24T08:23:01;3.97;;;2.53;;
33188;SDS011;52601;53.070;10.600;2023-06-24T08:26:46;4.63;;;2.78;;
33188;SDS011;52601;53.070;10.600;2023-06-24T08:30:32;4.38;;;2.60;;
33188;SDS011;52601;53.070;10.600;2023-06-24T08:34:16;4.10;;;2.28;;
33188;SDS011;52601;53.070;10.600;2023-06-24T08:38:00;3.60;;;2.20;;
33188;SDS011;52601;53.070;10.600;2023-06-24T08:41:44;2.95;;;2.17;;
33188;SDS011;52601;53.070;10.600;2023-06-24T08:45:29;2.80;;;2.20;;
33188;SDS011;52601;53.070;10.600;2023-06-24T08:53:10;4.38;;;3.00;;
33188;SDS011;52601;53.070;10.600;2023-06-24T08:56:55;3.40;;;2.33;;
